Samantha — VMQ9903 — position and weather

sailwx.info

Track history (hours):
 
Tides and Currents Weather Stations Pressure Air Temp Water Temp Dewpoint Dewpoint Depression Visibility Wind Speed Wind Dir Waves Ship Positions

Samantha

Last reported at 2014-Oct-01 00:10 UTC. Time now 2014-Oct-25 16:51 UTC.
Position S 12°27' E 130°51'.
Warning: this ship's position is 24 days out of date.

Length 22 m; draft 3.5 m.

Type: Tug. MMSI: 503540300.

Date/timePositionNaut miles runAvg speedWind from/ knotsBaromVisibWave heightAir tempDewpointWater temp
2014-Oct-01 00:10S 12°27' E 130°51'0 0.0
2014-Sep-30 23:33S 12°27' E 130°51'0 0.2
2014-Sep-30 22:22S 12°28' E 130°51'0 0.0
2014-Sep-30 21:22S 12°28' E 130°51'1 0.7
2014-Sep-30 20:33S 12°28' E 130°51'4 3.8
2014-Sep-30 19:32S 12°27' E 130°47'6 5.8
2014-Sep-30 18:32S 12°22' E 130°44'6 5.8
2014-Sep-30 17:31S 12°16' E 130°43'2 2.2
2014-Sep-30 16:30S 12°18' E 130°44'6 6.0
2014-Sep-30 15:30S 12°14' E 130°48'  
Track history (hours):
 
Tides and Currents Weather Stations Pressure Air Temp Water Temp Dewpoint Dewpoint Depression Visibility Wind Speed Wind Dir Waves Ship Positions

Samantha

Last reported at 2014-Oct-01 00:10 UTC. Time now 2014-Oct-25 16:51 UTC.
Position S 12°27' E 130°51'.
Warning: this ship's position is 24 days out of date.

Length 22 m; draft 3.5 m.

Type: Tug. MMSI: 503540300.

Date/timePositionNaut miles runAvg speedWind from/ knotsBaromVisibWave heightAir tempDewpointWater temp
2014-Oct-01 00:10S 12°27' E 130°51'0 0.0
2014-Sep-30 23:33S 12°27' E 130°51'0 0.2
2014-Sep-30 22:22S 12°28' E 130°51'0 0.0
2014-Sep-30 21:22S 12°28' E 130°51'1 0.7
2014-Sep-30 20:33S 12°28' E 130°51'4 3.8
2014-Sep-30 19:32S 12°27' E 130°47'6 5.8
2014-Sep-30 18:32S 12°22' E 130°44'6 5.8
2014-Sep-30 17:31S 12°16' E 130°43'2 2.2
2014-Sep-30 16:30S 12°18' E 130°44'6 6.0
2014-Sep-30 15:30S 12°14' E 130°48'  

Dump ship's entire track history